Time;durP1;ratioP1;P1;durP2;ratioP2;P2;SDS_P1;SDS_P2;PMS_P1;PMS_P2;Temp;Humidity;BMP_temperature;BMP_pressure;BME280_temperature;BME280_humidity;BME280_pressure;Samples;Min_cycle;Max_cycle;Signal;HPM_P1;HPM_P2
2022/12/22 03:25:54;;;;;;;2.50;0.88;;;8.80;99.90;;;;;;5011788;28;20434;-65
2022/12/22 03:28:22;;;;;;;3.35;0.90;;;8.90;99.90;;;;;;5009591;28;20033;-66
2022/12/22 03:31:00;;;;;;;5.00;0.70;;;8.90;99.90;;;;;;5015766;28;20054;-66
2022/12/22 03:33:26;;;;;;;2.25;0.60;;;8.90;99.90;;;;;;5011237;28;20038;-66
2022/12/22 03:35:52;;;;;;;1.23;0.80;;;8.90;99.90;;;;;;5008490;28;20392;-64
2022/12/22 03:38:17;;;;;;;1.63;1.10;;;8.90;99.90;;;;;;5013320;28;20026;-66
2022/12/22 03:40:43;;;;;;;0.60;0.60;;;8.80;99.90;;;;;;5013705;28;20095;-64
2022/12/22 03:48:43;;;;;;;0.88;0.57;;;9.00;99.90;;;;;;4996146;28;20038;-64
2022/12/22 03:51:09;;;;;;;1.00;0.88;;;9.00;99.90;;;;;;5009184;28;20026;-65
2022/12/22 03:53:34;;;;;;;0.95;0.75;;;9.10;99.90;;;;;;5015442;28;20399;-66
2022/12/22 03:56:00;;;;;;;12.43;1.00;;;9.10;99.90;;;;;;5014080;28;20104;-66
2022/12/22 03:58:27;;;;;;;1.60;1.17;;;9.00;99.90;;;;;;5011929;28;20029;-64
2022/12/22 04:01:03;;;;;;;15.80;1.27;;;9.10;99.90;;;;;;5009991;28;20032;-66
2022/12/22 04:03:28;;;;;;;1.05;0.93;;;9.10;99.90;;;;;;5010001;28;20512;-66
2022/12/22 04:05:54;;;;;;;1.55;0.95;;;9.10;99.90;;;;;;5010257;28;20044;-66
2022/12/22 04:08:20;;;;;;;1.55;1.05;;;9.10;99.90;;;;;;5001933;28;20045;-65
2022/12/22 04:13:29;;;;;;;0.68;0.55;;;9.10;99.90;;;;;;4981744;28;20048;-65
2022/12/22 04:15:55;;;;;;;1.17;0.75;;;9.10;99.90;;;;;;5002065;28;20483;-66
2022/12/22 04:18:20;;;;;;;0.85;0.70;;;9.20;99.90;;;;;;5000626;28;20391;-66
2022/12/22 04:20:48;;;;;;;0.80;0.80;;;9.20;99.90;;;;;;5001462;28;20022;-65
2022/12/22 04:23:13;;;;;;;2.67;0.68;;;9.30;99.90;;;;;;5001339;28;20431;-65
2022/12/22 04:25:39;;;;;;;0.65;0.65;;;9.30;99.90;;;;;;5000152;28;20044;-65
2022/12/22 04:28:04;;;;;;;3.65;0.80;;;9.30;99.90;;;;;;4998988;28;20484;-66
2022/12/22 04:30:30;;;;;;;2.33;0.75;;;9.30;99.90;;;;;;5000053;28;20399;-65
2022/12/22 04:32:55;;;;;;;0.70;0.70;;;9.30;99.90;;;;;;5000755;28;20033;-65
2022/12/22 04:35:21;;;;;;;0.50;0.50;;;9.40;99.90;;;;;;5001560;28;20053;-66
2022/12/22 04:37:47;;;;;;;1.92;0.77;;;9.40;99.90;;;;;;4999735;28;20022;-66
2022/12/22 04:40:12;;;;;;;0.98;0.70;;;9.40;99.90;;;;;;5000991;28;20029;-66
2022/12/22 04:42:38;;;;;;;0.60;0.60;;;9.30;99.90;;;;;;5000887;28;20026;-65
2022/12/22 04:45:04;;;;;;;3.97;0.60;;;9.30;99.90;;;;;;5015847;28;20080;-66
2022/12/22 04:47:29;;;;;;;1.67;0.68;;;9.30;99.90;;;;;;5003382;28;20091;-65
2022/12/22 04:49:55;;;;;;;1.70;0.55;;;9.40;99.90;;;;;;4999074;28;20038;-65
2022/12/22 04:52:21;;;;;;;0.82;0.70;;;9.30;99.90;;;;;;5007526;28;20025;-65
2022/12/22 04:54:46;;;;;;;0.98;0.45;;;9.40;99.90;;;;;;5014549;28;20519;-66
2022/12/22 04:57:12;;;;;;;1.23;1.13;;;9.40;99.90;;;;;;5010595;28;20057;-66
2022/12/22 04:59:37;;;;;;;3.50;1.20;;;9.40;99.90;;;;;;5012022;28;20120;-65
2022/12/22 05:02:03;;;;;;;1.13;0.60;;;9.40;99.90;;;;;;5016135;28;20391;-65
2022/12/22 05:04:29;;;;;;;0.93;0.65;;;9.30;99.90;;;;;;5012873;28;20072;-67
2022/12/22 05:06:54;;;;;;;1.70;0.80;;;9.40;99.90;;;;;;5013628;28;20160;-65
2022/12/22 05:09:20;;;;;;;0.88;0.75;;;9.40;99.90;;;;;;5012758;28;20028;-65
2022/12/22 05:11:45;;;;;;;0.77;0.77;;;9.40;99.90;;;;;;5013941;28;20523;-66
2022/12/22 05:14:11;;;;;;;1.23;0.95;;;9.40;99.90;;;;;;4991031;28;20045;-65
2022/12/22 05:16:36;;;;;;;1.08;0.80;;;9.30;99.90;;;;;;5015863;28;20029;-66
2022/12/22 05:19:02;;;;;;;0.75;0.73;;;9.30;99.90;;;;;;5013329;28;20514;-65
2022/12/22 05:21:28;;;;;;;0.73;0.70;;;9.30;99.90;;;;;;5015495;28;20037;-66
2022/12/22 05:23:53;;;;;;;0.68;0.65;;;9.30;99.90;;;;;;5015056;28;20069;-67
2022/12/22 05:26:19;;;;;;;0.77;0.70;;;9.30;99.90;;;;;;5007067;28;20038;-64
2022/12/22 05:28:46;;;;;;;1.25;1.02;;;9.30;99.90;;;;;;5014628;28;20476;-64
2022/12/22 05:31:19;;;;;;;2.67;0.70;;;9.30;99.90;;;;;;5016088;28;20038;-66
2022/12/22 05:33:44;;;;;;;0.90;0.52;;;9.30;99.90;;;;;;5022517;28;20041;-66
2022/12/22 05:36:10;;;;;;;1.75;0.70;;;9.30;99.90;;;;;;5016072;28;20026;-65
2022/12/22 05:38:35;;;;;;;0.60;0.60;;;9.30;99.90;;;;;;5019810;28;20491;-64
2022/12/22 05:41:01;;;;;;;2.20;0.80;;;9.40;99.90;;;;;;5013731;28;20037;-66
2022/12/22 05:43:27;;;;;;;4.72;0.80;;;9.40;99.90;;;;;;5014694;28;20040;-66
2022/12/22 05:45:52;;;;;;;0.80;0.70;;;9.40;99.90;;;;;;5022038;28;20111;-66
2022/12/22 05:48:18;;;;;;;0.80;0.60;;;9.50;99.90;;;;;;5012333;28;20144;-66
2022/12/22 05:50:44;;;;;;;0.40;0.40;;;9.50;99.90;;;;;;5016260;28;20035;-66
2022/12/22 05:53:10;;;;;;;1.48;0.73;;;9.50;99.90;;;;;;5017516;28;20030;-66
2022/12/22 05:55:36;;;;;;;0.95;0.70;;;9.50;99.90;;;;;;5018742;28;20033;-66
2022/12/22 05:58:01;;;;;;;0.28;0.28;;;9.50;99.90;;;;;;5011906;28;20117;-66
2022/12/22 06:00:30;;;;;;;1.15;0.40;;;9.60;99.90;;;;;;5009211;28;20112;-65
2022/12/22 06:02:57;;;;;;;0.40;0.40;;;9.60;99.90;;;;;;5013531;28;20033;-66
2022/12/22 06:05:23;;;;;;;0.30;0.30;;;9.60;99.90;;;;;;5004625;28;20030;-66
2022/12/22 06:07:49;;;;;;;3.83;0.63;;;9.70;99.90;;;;;;5019408;28;20045;-64
2022/12/22 06:10:15;;;;;;;0.40;0.40;;;9.80;99.90;;;;;;5014628;28;20037;-65
2022/12/22 06:12:41;;;;;;;1.33;0.68;;;9.80;99.90;;;;;;5008750;28;20069;-65
2022/12/22 06:15:11;;;;;;;1.98;0.43;;;9.70;99.90;;;;;;4999176;28;20111;-66
2022/12/22 06:17:37;;;;;;;4.03;0.60;;;9.70;99.90;;;;;;5011489;28;20030;-66
2022/12/22 06:20:04;;;;;;;0.38;0.30;;;9.70;99.90;;;;;;5015990;28;20026;-66
2022/12/22 06:22:29;;;;;;;3.20;0.40;;;9.70;99.90;;;;;;5017703;28;20124;-66
2022/12/22 06:24:55;;;;;;;0.60;0.60;;;9.70;99.90;;;;;;5010952;28;20097;-65
2022/12/22 06:27:20;;;;;;;0.63;0.50;;;9.70;99.90;;;;;;5010612;28;20058;-65
2022/12/22 06:29:46;;;;;;;0.60;0.38;;;9.80;99.90;;;;;;5001267;28;20030;-66
2022/12/22 06:32:11;;;;;;;10.18;0.95;;;9.70;99.90;;;;;;5002568;28;20127;-66
2022/12/22 06:34:37;;;;;;;1.05;0.80;;;9.70;99.90;;;;;;5002401;28;20506;-65
2022/12/22 06:37:02;;;;;;;1.60;1.15;;;9.70;99.90;;;;;;5001342;28;20026;-66
2022/12/22 06:39:28;;;;;;;1.35;1.02;;;9.70;99.90;;;;;;5005150;28;20022;-65
2022/12/22 06:44:37;;;;;;;1.73;1.60;;;9.70;99.90;;;;;;5000811;28;21028;-65
2022/12/22 06:47:03;;;;;;;2.00;1.80;;;9.70;99.90;;;;;;5003714;28;20038;-66
2022/12/22 06:49:29;;;;;;;3.08;2.58;;;9.70;99.90;;;;;;4999073;28;20515;-66
2022/12/22 06:51:54;;;;;;;10.25;5.55;;;9.70;99.90;;;;;;5002929;28;20065;-64
2022/12/22 06:54:20;;;;;;;8.13;4.97;;;9.70;99.90;;;;;;5000715;28;20049;-64
2022/12/22 06:56:45;;;;;;;15.50;7.93;;;9.70;99.90;;;;;;5001766;28;20080;-67
2022/12/22 06:59:11;;;;;;;26.05;10.15;;;9.70;99.90;;;;;;5001225;28;20038;-65
2022/12/22 07:01:37;;;;;;;17.50;6.88;;;9.70;99.90;;;;;;5005417;28;20484;-67
2022/12/22 07:04:02;;;;;;;15.02;6.75;;;9.70;99.90;;;;;;5008033;28;20376;-66
2022/12/22 07:06:28;;;;;;;23.02;9.10;;;9.70;99.90;;;;;;5011526;28;20475;-67
2022/12/22 07:08:53;;;;;;;20.80;8.55;;;9.70;99.90;;;;;;5009503;28;20032;-65
2022/12/22 07:11:19;;;;;;;20.08;8.55;;;9.70;99.90;;;;;;5010133;28;20381;-66
2022/12/22 07:13:45;;;;;;;25.17;9.38;;;9.70;99.90;;;;;;4991034;28;20041;-65
2022/12/22 07:16:11;;;;;;;26.70;10.13;;;9.70;99.90;;;;;;5007789;28;20018;-66
2022/12/22 07:18:40;;;;;;;31.63;12.88;;;9.70;99.90;;;;;;5014590;28;20542;-65
2022/12/22 07:21:08;;;;;;;61.15;17.70;;;9.70;99.90;;;;;;5008207;28;20026;-65
2022/12/22 07:23:34;;;;;;;55.65;19.52;;;9.70;99.90;;;;;;5007282;28;20662;-66
2022/12/22 07:26:00;;;;;;;27.25;10.60;;;9.70;99.90;;;;;;5009782;28;20042;-65
2022/12/22 07:28:26;;;;;;;37.92;10.13;;;9.80;99.90;;;;;;5009419;28;20092;-64
2022/12/22 07:30:52;;;;;;;41.10;10.90;;;9.70;99.90;;;;;;5003567;28;20503;-66
2022/12/22 07:33:18;;;;;;;39.70;12.93;;;9.70;99.90;;;;;;5008572;28;20069;-66
2022/12/22 07:35:44;;;;;;;104.85;21.15;;;9.70;99.90;;;;;;5008923;28;20054;-65
2022/12/22 07:38:10;;;;;;;103.28;18.38;;;9.80;99.90;;;;;;5007871;28;20101;-65
2022/12/22 07:40:35;;;;;;;65.60;15.90;;;9.70;99.90;;;;;;5009120;28;20627;-65
2022/12/22 07:43:01;;;;;;;105.75;12.98;;;9.70;99.90;;;;;;5001075;28;20026;-66
2022/12/22 07:45:27;;;;;;;57.28;8.82;;;9.70;99.90;;;;;;5001368;28;20034;-66
2022/12/22 07:48:00;;;;;;;66.57;7.90;;;9.70;99.90;;;;;;4982096;28;20244;-66
2022/12/22 07:50:27;;;;;;;84.72;11.52;;;9.70;99.90;;;;;;5006062;28;20113;-63
2022/12/22 07:52:56;;;;;;;59.72;9.43;;;9.70;99.90;;;;;;5009937;28;20030;-65
2022/12/22 07:55:28;;;;;;;31.58;7.20;;;9.70;99.90;;;;;;5009500;28;20034;-66
2022/12/22 07:57:54;;;;;;;67.63;8.65;;;9.70;99.90;;;;;;5008899;28;20038;-66
2022/12/22 08:00:21;;;;;;;47.30;8.93;;;9.70;99.90;;;;;;5009668;28;20026;-65
2022/12/22 08:02:51;;;;;;;27.90;8.73;;;9.70;99.90;;;;;;5001755;28;20408;-65
2022/12/22 08:05:18;;;;;;;24.60;10.23;;;9.70;99.90;;;;;;4999559;28;20022;-66
2022/12/22 08:07:44;;;;;;;41.92;12.27;;;9.70;99.90;;;;;;4999958;28;20035;-66
2022/12/22 08:10:10;;;;;;;76.68;13.07;;;9.70;99.90;;;;;;4998670;28;20042;-65
2022/12/22 08:12:37;;;;;;;46.25;12.05;;;9.70;99.90;;;;;;5001329;28;20557;-66
2022/12/22 08:15:04;;;;;;;56.58;10.38;;;9.70;99.90;;;;;;4981122;28;20041;-66
2022/12/22 08:17:30;;;;;;;61.70;10.18;;;9.70;99.90;;;;;;5003470;28;20018;-65
2022/12/22 08:19:55;;;;;;;88.20;12.43;;;9.70;99.90;;;;;;5000732;28;20030;-66
2022/12/22 08:22:25;;;;;;;18.27;8.88;;;9.70;99.90;;;;;;5008865;28;20024;-65
2022/12/22 08:24:53;;;;;;;24.23;9.52;;;9.70;99.90;;;;;;5012637;28;20472;-66
2022/12/22 08:27:42;;;;;;;17.95;9.70;;;9.60;99.90;;;;;;5011859;28;20053;-66
2022/12/22 08:30:09;;;;;;;21.98;10.25;;;9.60;99.90;;;;;;5008483;28;20069;-65
2022/12/22 08:32:36;;;;;;;20.00;9.23;;;9.60;99.90;;;;;;5002919;28;20037;-65
2022/12/22 08:35:03;;;;;;;14.48;8.30;;;9.60;99.90;;;;;;5016488;28;20101;-65
2022/12/22 08:37:33;;;;;;;17.25;9.82;;;9.60;99.90;;;;;;5010169;28;20029;-66
2022/12/22 08:40:03;;;;;;;20.85;9.20;;;9.60;99.90;;;;;;5016928;28;20084;-65
2022/12/22 08:42:29;;;;;;;16.42;8.93;;;9.70;99.90;;;;;;4998587;28;20072;-66
2022/12/22 08:44:55;;;;;;;14.23;8.68;;;9.70;99.90;;;;;;5001210;28;20061;-64
2022/12/22 08:47:21;;;;;;;16.17;8.15;;;9.70;99.90;;;;;;4998282;28;20030;-66
2022/12/22 08:49:48;;;;;;;15.05;8.20;;;9.70;99.90;;;;;;4999426;28;20515;-65
2022/12/22 08:52:14;;;;;;;11.82;7.85;;;9.70;99.90;;;;;;4976645;28;20035;-65
2022/12/22 08:54:41;;;;;;;12.48;7.35;;;9.80;99.90;;;;;;5006396;28;20050;-65
2022/12/22 08:57:07;;;;;;;25.42;7.68;;;9.80;99.90;;;;;;5008313;28;20067;-66
2022/12/22 08:59:32;;;;;;;12.82;7.90;;;9.80;99.90;;;;;;5010043;28;20037;-66
2022/12/22 09:02:03;;;;;;;12.98;8.20;;;9.80;99.90;;;;;;5010703;28;20034;-66
2022/12/22 09:04:29;;;;;;;12.82;8.45;;;9.80;99.90;;;;;;5008458;28;20088;-66
2022/12/22 09:06:55;;;;;;;15.57;8.75;;;9.80;99.90;;;;;;5009409;28;20042;-66
2022/12/22 09:09:21;;;;;;;11.45;6.85;;;9.80;99.90;;;;;;5008745;28;20022;-66
2022/12/22 09:11:46;;;;;;;13.13;7.60;;;9.80;99.90;;;;;;5010186;28;20030;-65
2022/12/22 09:14:12;;;;;;;11.30;7.40;;;9.80;99.90;;;;;;4987125;28;20496;-65
2022/12/22 09:16:38;;;;;;;13.00;8.10;;;9.80;99.90;;;;;;4980438;28;20026;-66
2022/12/22 09:19:05;;;;;;;16.20;8.15;;;9.80;99.90;;;;;;4980953;28;20157;-66
2022/12/22 09:21:31;;;;;;;13.38;8.15;;;9.80;99.90;;;;;;4987036;28;20026;-65
2022/12/22 09:23:57;;;;;;;13.93;8.15;;;9.80;99.90;;;;;;4987784;28;20507;-66
2022/12/22 09:26:26;;;;;;;17.92;9.60;;;9.80;99.90;;;;;;4989885;28;20026;-66
2022/12/22 09:28:52;;;;;;;15.43;9.02;;;9.80;99.90;;;;;;4983500;28;20030;-65
2022/12/22 09:31:19;;;;;;;15.35;9.73;;;9.80;99.90;;;;;;4990217;28;20030;-65
2022/12/22 09:33:45;;;;;;;19.58;11.48;;;9.90;99.90;;;;;;4994174;28;20484;-66
2022/12/22 09:36:13;;;;;;;21.70;12.10;;;9.80;99.90;;;;;;4990189;28;20037;-66
2022/12/22 09:38:40;;;;;;;19.75;12.45;;;9.80;99.90;;;;;;4988028;28;20019;-66
2022/12/22 09:41:08;;;;;;;22.38;11.98;;;9.80;99.90;;;;;;4989367;28;20481;-65
2022/12/22 09:43:33;;;;;;;19.73;12.18;;;9.80;99.90;;;;;;4981475;28;20046;-64
2022/12/22 09:45:59;;;;;;;19.95;11.98;;;9.80;99.90;;;;;;4981569;28;20038;-66
2022/12/22 09:48:34;;;;;;;24.98;14.23;;;9.80;99.90;;;;;;4977898;28;20030;-64
2022/12/22 09:51:01;;;;;;;27.23;14.27;;;9.80;99.90;;;;;;4982205;28;20130;-66
2022/12/22 09:53:27;;;;;;;26.17;13.48;;;9.80;99.90;;;;;;4985840;28;20037;-66
2022/12/22 09:55:52;;;;;;;27.10;15.48;;;9.80;99.90;;;;;;4979550;28;20026;-65
2022/12/22 09:58:20;;;;;;;27.27;14.35;;;9.80;99.90;;;;;;4978236;28;20113;-66
2022/12/22 10:01:12;;;;;;;28.73;14.60;;;9.80;99.90;;;;;;4977507;28;20038;-66
2022/12/22 10:03:41;;;;;;;50.03;27.15;;;9.80;99.90;;;;;;4952347;28;20044;-65
2022/12/22 10:06:10;;;;;;;36.08;15.95;;;9.80;99.90;;;;;;4980014;28;20104;-66
2022/12/22 10:08:39;;;;;;;29.60;14.07;;;9.70;99.90;;;;;;4978506;28;20045;-65
2022/12/22 10:11:05;;;;;;;26.48;15.00;;;9.70;99.90;;;;;;4975963;28;20096;-66
2022/12/22 10:13:31;;;;;;;36.80;19.27;;;9.80;99.90;;;;;;4981250;28;20633;-66
2022/12/22 10:15:57;;;;;;;34.75;17.42;;;9.80;99.90;;;;;;4970675;28;20046;-66
2022/12/22 10:18:25;;;;;;;43.53;21.33;;;9.80;99.90;;;;;;4983712;28;20026;-65
2022/12/22 10:21:13;;;;;;;34.08;17.35;;;9.80;99.90;;;;;;4981636;28;20033;-66
2022/12/22 10:23:43;;;;;;;30.73;17.60;;;9.80;99.90;;;;;;4980605;28;20034;-65
2022/12/22 10:26:11;;;;;;;28.10;16.60;;;9.80;99.90;;;;;;4983811;28;20411;-66
2022/12/22 10:28:46;;;;;;;28.30;14.98;;;9.80;99.90;;;;;;4983100;28;20750;-66
2022/12/22 10:31:11;;;;;;;26.23;12.90;;;9.90;99.90;;;;;;4993216;28;20022;-67
2022/12/22 10:33:38;;;;;;;27.63;14.80;;;9.80;99.90;;;;;;4994504;28;20506;-64
2022/12/22 10:36:04;;;;;;;25.08;12.88;;;9.80;99.90;;;;;;4995255;28;20026;-64
2022/12/22 10:38:39;;;;;;;26.30;14.32;;;9.80;99.90;;;;;;4992680;28;20022;-65
2022/12/22 10:41:22;;;;;;;24.15;13.80;;;9.90;99.90;;;;;;4993860;28;20489;-65
2022/12/22 10:43:51;;;;;;;23.08;11.90;;;9.90;99.90;;;;;;4990971;28;20121;-65
2022/12/22 10:46:18;;;;;;;20.05;12.25;;;10.00;99.90;;;;;;4989191;28;20636;-65
2022/12/22 10:48:44;;;;;;;23.13;12.55;;;10.00;99.90;;;;;;4993997;28;20090;-65
2022/12/22 10:51:12;;;;;;;19.48;11.52;;;9.90;99.90;;;;;;4998900;28;20037;-66
2022/12/22 10:53:45;;;;;;;23.70;14.13;;;9.90;99.90;;;;;;4990503;28;20121;-65
2022/12/22 10:56:31;;;;;;;27.55;15.40;;;9.90;99.90;;;;;;4993675;28;20033;-65
2022/12/22 10:59:19;;;;;;;31.27;16.63;;;9.80;99.90;;;;;;4993000;28;20077;-65
2022/12/22 11:01:45;;;;;;;31.48;16.67;;;9.80;99.90;;;;;;4990291;28;20022;-65
2022/12/22 11:04:25;;;;;;;33.00;18.75;;;9.80;99.90;;;;;;4993726;28;20030;-65
2022/12/22 11:06:57;;;;;;;35.42;18.17;;;9.80;99.90;;;;;;4989425;28;20053;-65
2022/12/22 11:09:24;;;;;;;34.35;19.23;;;9.70;99.90;;;;;;4995145;28;20491;-65
2022/12/22 11:12:03;;;;;;;30.50;15.05;;;9.70;99.90;;;;;;4987420;28;20022;-64
2022/12/22 11:15:10;;;;;;;27.88;15.13;;;9.70;99.90;;;;;;4974444;28;20042;-64
2022/12/22 11:17:56;;;;;;;27.23;13.70;;;9.70;99.90;;;;;;4994456;28;20036;-65
2022/12/22 11:20:47;;;;;;;27.48;13.13;;;9.70;99.90;;;;;;4991342;28;20041;-66
2022/12/22 11:23:19;;;;;;;27.58;13.88;;;9.70;99.90;;;;;;4988360;28;20034;-65
2022/12/22 11:25:47;;;;;;;26.67;13.45;;;9.70;99.90;;;;;;4989801;28;20027;-66
2022/12/22 11:28:21;;;;;;;30.15;14.57;;;9.80;99.90;;;;;;4995863;28;20027;-65
2022/12/22 11:30:47;;;;;;;26.92;13.82;;;10.00;99.90;;;;;;4990187;28;20396;-65
2022/12/22 11:33:27;;;;;;;26.02;13.88;;;10.20;99.90;;;;;;4982619;28;20030;-65
2022/12/22 11:36:00;;;;;;;21.73;13.70;;;10.40;99.90;;;;;;4982929;28;20018;-64
2022/12/22 11:38:57;;;;;;;24.55;12.18;;;10.60;99.90;;;;;;4983160;28;20049;-64
2022/12/22 11:41:50;;;;;;;24.17;16.05;;;10.70;99.90;;;;;;4988365;28;20018;-64
2022/12/22 11:44:22;;;;;;;20.65;11.60;;;10.70;99.90;;;;;;4987586;28;20026;-65
2022/12/22 11:46:57;;;;;;;18.23;10.80;;;10.70;99.90;;;;;;4989764;28;20030;-66
2022/12/22 11:49:38;;;;;;;23.35;11.65;;;10.70;99.90;;;;;;4988056;28;20038;-65
2022/12/22 11:52:32;;;;;;;21.73;11.50;;;10.70;99.90;;;;;;4989739;28;20064;-66
2022/12/22 11:55:39;;;;;;;20.73;11.40;;;10.70;99.90;;;;;;4989377;28;20488;-65
2022/12/22 11:58:24;;;;;;;20.58;10.60;;;10.70;99.90;;;;;;4916429;29;20153;-66
2022/12/22 12:01:06;;;;;;;16.48;9.70;;;10.70;99.90;;;;;;4920101;29;20109;-65
2022/12/22 12:03:50;;;;;;;20.48;11.02;;;10.70;99.90;;;;;;4967507;28;20848;-66
2022/12/22 12:06:43;;;;;;;18.90;10.35;;;10.60;99.90;;;;;;4991995;28;20054;-66
2022/12/22 12:09:46;;;;;;;17.45;9.88;;;10.50;99.90;;;;;;4990427;28;20096;-66
2022/12/22 12:12:33;;;;;;;19.55;10.40;;;10.50;99.90;;;;;;4989553;28;20134;-66
2022/12/22 12:15:29;;;;;;;17.20;10.63;;;10.40;99.90;;;;;;4988253;28;20073;-66
2022/12/22 12:18:02;;;;;;;17.58;9.05;;;10.60;99.90;;;;;;4985515;28;20684;-64
2022/12/22 12:20:34;;;;;;;16.20;8.60;;;10.70;99.90;;;;;;4988410;28;20037;-63
2022/12/22 12:23:12;;;;;;;17.35;8.25;;;10.60;99.90;;;;;;4983503;28;20026;-65
2022/12/22 12:25:47;;;;;;;17.50;8.77;;;10.50;99.90;;;;;;4982176;28;20029;-66
2022/12/22 12:28:57;;;;;;;15.50;8.85;;;10.50;99.90;;;;;;4988314;28;20161;-66
2022/12/22 12:31:29;;;;;;;16.20;8.82;;;10.40;99.90;;;;;;4982609;28;20502;-66
2022/12/22 12:33:59;;;;;;;18.05;8.15;;;10.30;99.90;;;;;;4989249;28;20520;-66
2022/12/22 12:36:43;;;;;;;15.95;8.45;;;10.20;99.90;;;;;;4987950;28;20027;-66
2022/12/22 12:39:32;;;;;;;18.20;8.50;;;10.10;99.90;;;;;;4987175;28;20030;-66
2022/12/22 12:42:07;;;;;;;14.50;8.15;;;9.90;99.90;;;;;;4986240;28;20125;-66
2022/12/22 12:44:37;;;;;;;17.73;9.73;;;9.80;99.90;;;;;;4983464;28;20554;-66
2022/12/22 12:47:24;;;;;;;17.60;9.77;;;9.60;99.90;;;;;;4981746;28;20041;-65
2022/12/22 12:49:54;;;;;;;21.95;9.60;;;9.60;99.90;;;;;;4983191;28;20042;-66
2022/12/22 12:52:42;;;;;;;19.83;9.90;;;9.60;99.90;;;;;;4989669;28;20022;-65
2022/12/22 12:55:45;;;;;;;20.83;9.63;;;9.60;99.90;;;;;;4977845;28;20607;-65
2022/12/22 12:58:31;;;;;;;28.30;12.15;;;9.60;99.90;;;;;;4985656;28;20049;-66
2022/12/22 13:00:57;;;;;;;48.08;16.40;;;9.60;99.90;;;;;;4981192;28;20447;-66
2022/12/22 13:03:23;;;;;;;50.58;16.02;;;9.70;99.90;;;;;;4979973;28;20031;-66
2022/12/22 13:05:50;;;;;;;25.73;9.35;;;9.70;99.90;;;;;;4977276;28;20046;-66
2022/12/22 13:08:29;;;;;;;18.15;9.02;;;9.80;99.90;;;;;;4984775;28;20023;-66
2022/12/22 13:10:54;;;;;;;20.83;8.35;;;9.90;99.90;;;;;;4982159;28;20045;-65
2022/12/22 13:13:25;;;;;;;20.50;9.38;;;9.90;99.90;;;;;;4988185;28;20034;-67
2022/12/22 13:16:03;;;;;;;14.57;8.50;;;9.90;99.90;;;;;;4967066;28;20035;-65
2022/12/22 13:18:34;;;;;;;19.95;9.32;;;9.90;99.90;;;;;;4982234;28;20093;-64
2022/12/22 13:21:07;;;;;;;20.08;8.75;;;10.00;99.90;;;;;;4988718;28;20034;-65
2022/12/22 13:23:43;;;;;;;18.85;9.82;;;10.00;99.90;;;;;;4988678;28;20535;-65
2022/12/22 13:26:21;;;;;;;38.75;14.27;;;10.10;99.90;;;;;;4988728;28;20038;-66
2022/12/22 13:28:55;;;;;;;51.97;15.05;;;10.20;99.90;;;;;;4994347;28;20038;-67
2022/12/22 13:31:29;;;;;;;55.17;15.32;;;10.20;99.90;;;;;;4987667;28;20042;-66
2022/12/22 13:34:20;;;;;;;17.80;8.80;;;10.30;99.90;;;;;;4989093;28;20400;-66
2022/12/22 13:36:47;;;;;;;42.33;11.88;;;10.20;99.90;;;;;;4984444;28;20041;-65
2022/12/22 13:39:14;;;;;;;41.45;13.10;;;10.10;99.90;;;;;;4987600;28;20042;-65
2022/12/22 13:41:46;;;;;;;16.55;6.82;;;10.10;99.90;;;;;;4985076;28;20045;-66
2022/12/22 13:44:19;;;;;;;30.52;10.50;;;10.10;99.90;;;;;;4988349;28;20057;-67
2022/12/22 13:46:45;;;;;;;27.75;9.18;;;10.00;99.90;;;;;;4987196;28;20022;-64
2022/12/22 13:49:17;;;;;;;18.88;8.13;;;9.90;99.90;;;;;;4989767;28;20039;-65
2022/12/22 13:51:45;;;;;;;23.55;9.00;;;9.90;99.90;;;;;;4993220;28;20109;-65
2022/12/22 13:54:28;;;;;;;11.77;6.28;;;9.90;99.90;;;;;;4983112;28;20499;-66
2022/12/22 13:56:57;;;;;;;13.80;6.55;;;9.80;99.90;;;;;;4989913;28;20030;-66
2022/12/22 13:59:39;;;;;;;27.88;10.23;;;9.80;99.90;;;;;;4990729;28;20518;-66
2022/12/22 14:02:07;;;;;;;11.73;5.30;;;9.70;99.90;;;;;;4988455;28;20065;-66
2022/12/22 14:04:35;;;;;;;28.85;10.30;;;9.70;99.90;;;;;;4991821;28;20038;-65
2022/12/22 14:07:16;;;;;;;24.85;10.75;;;9.60;99.90;;;;;;4994571;28;20034;-65
2022/12/22 14:09:46;;;;;;;48.50;18.15;;;9.60;99.90;;;;;;4992717;28;20038;-65
2022/12/22 14:12:43;;;;;;;31.63;11.65;;;9.60;99.90;;;;;;4982278;28;20097;-66
2022/12/22 14:15:16;;;;;;;13.32;6.60;;;9.70;99.90;;;;;;4968555;28;20482;-66
2022/12/22 14:17:41;;;;;;;12.90;6.30;;;9.80;99.90;;;;;;5003117;28;20402;-67
2022/12/22 14:20:28;;;;;;;12.88;7.10;;;9.80;99.90;;;;;;4989571;28;20521;-66
2022/12/22 14:23:01;;;;;;;10.52;5.05;;;9.80;99.90;;;;;;4977785;28;20027;-66
2022/12/22 14:25:35;;;;;;;9.73;5.70;;;9.80;99.90;;;;;;4988490;28;20054;-67
2022/12/22 14:28:03;;;;;;;9.65;5.22;;;9.70;99.90;;;;;;4983218;28;20284;-66
2022/12/22 14:30:34;;;;;;;9.57;5.63;;;9.70;99.90;;;;;;4983959;28;20031;-65
2022/12/22 14:33:22;;;;;;;12.07;7.00;;;9.70;99.90;;;;;;4990491;28;20117;-66
2022/12/22 14:35:49;;;;;;;15.23;8.63;;;9.60;99.90;;;;;;4987633;28;20027;-65
2022/12/22 14:38:25;;;;;;;14.50;7.65;;;9.50;99.90;;;;;;4995638;28;20057;-66
2022/12/22 14:40:53;;;;;;;18.90;8.48;;;9.50;99.90;;;;;;4987780;28;20037;-68
2022/12/22 14:43:18;;;;;;;15.77;9.10;;;9.40;99.90;;;;;;4986467;28;20026;-65
2022/12/22 14:45:45;;;;;;;17.92;9.57;;;9.40;99.90;;;;;;4993333;28;20153;-66
2022/12/22 14:48:23;;;;;;;17.23;8.25;;;9.40;99.90;;;;;;4994826;28;20041;-67
2022/12/22 14:50:50;;;;;;;10.85;6.63;;;9.30;99.90;;;;;;4996472;28;20037;-67
2022/12/22 14:53:28;;;;;;;19.63;8.85;;;9.30;99.90;;;;;;4992002;28;20022;-67
2022/12/22 14:55:53;;;;;;;19.50;8.75;;;9.30;99.90;;;;;;4998111;28;20053;-65
2022/12/22 14:58:28;;;;;;;17.80;9.10;;;9.20;99.90;;;;;;4989871;28;20062;-65
2022/12/22 15:01:16;;;;;;;13.60;7.63;;;9.20;99.90;;;;;;4995612;28;20022;-67
2022/12/22 15:03:42;;;;;;;13.77;7.70;;;9.20;99.90;;;;;;4985755;28;20088;-65
2022/12/22 15:06:26;;;;;;;17.23;7.90;;;9.20;99.90;;;;;;4997863;28;20029;-65
2022/12/22 15:09:01;;;;;;;13.52;7.95;;;9.10;99.90;;;;;;4986510;28;20481;-67
2022/12/22 15:11:30;;;;;;;19.58;8.02;;;9.10;99.90;;;;;;4982469;28;20034;-66
2022/12/22 15:13:56;;;;;;;19.52;7.65;;;9.10;99.90;;;;;;4989922;28;20038;-66
2022/12/22 15:16:22;;;;;;;24.65;10.63;;;9.00;99.90;;;;;;4980015;28;20046;-65
2022/12/22 15:18:49;;;;;;;25.92;10.80;;;8.90;99.90;;;;;;4995461;28;20027;-66
2022/12/22 15:21:17;;;;;;;32.90;14.05;;;8.80;99.90;;;;;;4987189;28;20030;-67
2022/12/22 15:23:43;;;;;;;49.83;18.40;;;8.70;99.90;;;;;;4999103;28;20112;-66
2022/12/22 15:26:09;;;;;;;44.20;18.25;;;8.70;99.90;;;;;;4987665;28;20501;-66
2022/12/22 15:28:35;;;;;;;30.33;15.27;;;8.60;99.90;;;;;;4989065;28;20033;-65
2022/12/22 15:31:03;;;;;;;24.92;13.90;;;8.60;99.90;;;;;;4992353;28;20080;-66
2022/12/22 15:33:29;;;;;;;26.65;12.88;;;8.60;99.90;;;;;;4982901;28;20035;-67
2022/12/22 15:35:56;;;;;;;29.48;14.70;;;8.50;99.90;;;;;;4989895;28;20030;-66
2022/12/22 15:38:23;;;;;;;31.80;15.18;;;8.50;99.90;;;;;;4992219;28;20507;-65
2022/12/22 15:40:49;;;;;;;44.92;22.23;;;8.50;99.90;;;;;;4987571;28;20026;-67
2022/12/22 15:43:15;;;;;;;48.83;23.08;;;8.50;99.90;;;;;;4994692;28;20681;-66
2022/12/22 15:45:42;;;;;;;46.80;23.10;;;8.60;99.90;;;;;;4994241;28;20030;-66
2022/12/22 15:48:13;;;;;;;64.25;26.20;;;8.60;99.90;;;;;;4993555;28;20117;-65
2022/12/22 15:50:41;;;;;;;55.92;25.23;;;8.60;99.90;;;;;;4984767;28;20165;-67
2022/12/22 15:53:11;;;;;;;38.92;18.60;;;8.60;99.90;;;;;;4986198;28;20069;-66
2022/12/22 15:55:43;;;;;;;60.17;26.83;;;8.60;99.90;;;;;;4990099;28;20054;-66
2022/12/22 15:58:11;;;;;;;50.05;26.40;;;8.60;99.90;;;;;;4989021;28;20038;-66
2022/12/22 16:00:37;;;;;;;37.63;16.20;;;8.60;99.90;;;;;;4987694;28;20153;-66
2022/12/22 16:03:03;;;;;;;29.27;12.55;;;8.70;99.90;;;;;;4984945;28;20502;-66
2022/12/22 16:05:29;;;;;;;31.63;16.00;;;8.70;99.90;;;;;;4989726;28;20502;-67
2022/12/22 16:07:55;;;;;;;33.22;16.95;;;8.70;99.90;;;;;;4989015;28;20065;-66
2022/12/22 16:10:27;;;;;;;34.45;17.25;;;8.70;99.90;;;;;;4987631;28;20030;-66
2022/12/22 16:12:59;;;;;;;56.80;25.52;;;8.70;99.90;;;;;;4988091;28;20574;-67
2022/12/22 16:15:26;;;;;;;39.45;22.27;;;8.70;99.90;;;;;;4973860;28;20050;-67
2022/12/22 16:17:52;;;;;;;36.97;18.48;;;8.70;99.90;;;;;;4983561;28;20026;-66
2022/12/22 16:20:19;;;;;;;29.23;14.52;;;8.70;99.90;;;;;;4992856;28;20484;-66
2022/12/22 16:22:47;;;;;;;60.33;26.10;;;8.70;99.90;;;;;;4996764;28;20030;-66
2022/12/22 16:25:20;;;;;;;27.77;14.25;;;8.70;99.90;;;;;;4985999;28;20027;-65
2022/12/22 16:27:48;;;;;;;25.48;13.82;;;8.70;99.90;;;;;;4994362;28;20034;-65
2022/12/22 16:30:19;;;;;;;20.98;11.65;;;8.70;99.90;;;;;;4990968;28;20022;-65
2022/12/22 16:32:45;;;;;;;17.88;9.45;;;8.70;99.90;;;;;;4977862;28;20816;-64
2022/12/22 16:35:11;;;;;;;15.73;9.38;;;8.80;99.90;;;;;;4987243;28;20022;-66